Decoded Metar for CYTL (BIG TROUT LAKE in ON, CANADA) (IATA:YTL) | Meteo·Mobile Aviation Weather
aviador You're here:

CYTL Decoded Metar

BIG TROUT LAKE in ON, CANADA
Report Time2019-02-16 17:00:00
UTC Time2019-02-16 17:30:16
Flight Rules mvfr MVFR
Wind280° at 05 kt
W.Decomp.*RWY 32: 4.1 kt HW 2.9 kt LCW
W.Rank280° ranks 5
Current wind is below 280° avg. (8.5)
Visibility9999 m
Phenomena:N/A
Clouds:Overcast 020 Hf
Expected CloudBase > 1,200 ft AGL from Temp-Dew spread
Ceiling2,000 ft
Temp-23°C (ISA -37)
Dew Point-26°C (77% RH)
AAT-28.6°C
QNH1022 hPa
Density Alt-4,268 ft
Elevation735 ft
Report Wrong Elevation
Raw Report
CYTL 161700Z AUTO 28005KT 9SM OVC020 M23/M26 A3018 RMK SLP250=

Extra information for CYTL:More info

Metar Taf Metar & Taf Last 4 Metars F.Rules Stats Wind Profile Meteogram Temp Stats Airport Information Weather charts Add Link Nearby VenuesMetar ALERT Operation Metar Decoded Social comments